TimePST,TemperatureF,Dew PointF,Humidity,Sea Level PressureIn,VisibilityMPH,Wind Direction,Wind SpeedMPH,Gust SpeedMPH,PrecipitationIn,Events,Conditions,WindDirDegrees,DateUTC
12:54 AM,-9999,-9999,N/A,30.08,-9999.0,Calm,Calm,-,N/A,,Clear,0,2013-02-26 08:54:00
1:54 AM,-9999,-9999,N/A,30.06,-9999.0,Calm,Calm,-,N/A,,Clear,0,2013-02-26 09:54:00
2:54 AM,-9999,-9999,N/A,30.04,-9999.0,NE,3.5,-,N/A,,Clear,40,2013-02-26 10:54:00
3:54 AM,-9999,-9999,N/A,30.04,-9999.0,NNE,5.8,-,N/A,,Clear,30,2013-02-26 11:54:00
4:54 AM,-9999,-9999,N/A,30.04,-9999.0,North,6.9,-,N/A,,Clear,10,2013-02-26 12:54:00
5:54 AM,39.7,28.9,65,30.04,7.0,NNE,4.6,-,N/A,,Clear,20,2013-02-26 13:54:00
6:54 AM,38.8,28.6,67,30.04,7.0,NE,4.6,-,N/A,,Clear,40,2013-02-26 14:54:00
7:54 AM,44.2,32.4,63,30.06,7.0,NNE,6.9,-,N/A,,Clear,20,2013-02-26 15:54:00
8:54 AM,50.4,37.0,60,30.06,7.0,North,3.5,-,N/A,,Clear,350,2013-02-26 16:54:00
9:54 AM,50.4,37.0,60,30.07,7.0,SSW,5.8,-,N/A,,Clear,210,2013-02-26 17:54:00
10:54 AM,56.8,43.7,61,30.06,7.0,SW,8.1,-,N/A,,Clear,230,2013-02-26 18:54:00
11:54 AM,57.7,39.0,50,30.05,7.0,SW,6.9,-,N/A,,Clear,220,2013-02-26 19:54:00
12:54 PM,59.4,48.2,67,30.03,7.0,SSW,6.9,-,N/A,,Clear,210,2013-02-26 20:54:00
1:54 PM,59.4,48.2,67,30.03,7.0,North,-9999.0,-,N/A,,Clear,0,2013-02-26 21:54:00
2:54 PM,63.7,50.7,63,30.03,7.0,North,-9999.0,-,N/A,,Partly Cloudy,0,2013-02-26 22:54:00
3:54 PM,64.4,46.8,53,30.02,7.0,WSW,8.1,-,N/A,,Partly Cloudy,240,2013-02-26 23:54:00
4:54 PM,59.2,45.3,60,30.02,7.0,WSW,5.8,-,N/A,,Partly Cloudy,250,2013-02-27 00:54:00
5:54 PM,58.6,48.2,68,30.03,7.0,Calm,Calm,-,N/A,,Partly Cloudy,0,2013-02-27 01:54:00
6:54 PM,58.1,45.7,63,30.06,7.0,Calm,Calm,-,N/A,,Clear,0,2013-02-27 02:54:00
7:54 PM,56.8,47.1,70,30.07,7.0,North,3.5,-,N/A,,Clear,360,2013-02-27 03:54:00
8:54 PM,55.9,42.6,61,30.09,7.0,Calm,Calm,-,N/A,,Clear,0,2013-02-27 04:54:00
9:54 PM,52.3,42.4,69,30.12,7.0,NW,3.5,-,N/A,,Clear,310,2013-02-27 05:54:00
10:54 PM,50.7,43.0,75,30.12,7.0,NW,5.8,-,N/A,,Clear,320,2013-02-27 06:54:00
11:54 PM,-9999,-9999,N/A,30.14,-9999.0,North,5.8,-,N/A,,Clear,350,2013-02-27 07:54:00